Faisalabad Weather



Faisalabad's Current Weather

Temprature 20.95o few clouds

few clouds

Rain: 0 %

Min Temprature20.95o
Max Temprature20.95o
Humidity32
Wind Speed0.5 m/h
Sun Rise05:46:10
Sun Set18:31:49
Current Time: 09-Apr-2020 01:46:19
Lat/Lon: 31.42, 73.08




Faisalabad's Geo Location



Faisalabad's Weather Forecast

Time Overall Temp Min Temp Max Temp Humidity Wind Speed Rain
09-Apr-2020 (Thu)
02:00:00 few clouds 20.950 20.950 20.950 32 0.5 m/h 0 %
05:00:00 scattered clouds 20.110 20.110 20.110 34 1.57 m/h 0 %
08:00:00 scattered clouds 24.720 24.720 24.720 27 1 m/h 0 %
11:00:00 scattered clouds 31.630 31.630 31.630 16 2.46 m/h 0 %
14:00:00 overcast clouds 34.100 34.100 34.100 14 2.86 m/h 0 %
17:00:00 broken clouds 33.980 33.980 33.980 13 2.09 m/h 0 %
20:00:00 overcast clouds 28.320 28.320 28.320 19 1.71 m/h 0 %
23:00:00 overcast clouds 25.240 25.240 25.240 25 0.96 m/h 0 %
10-Apr-2020 (Fri)
02:00:00 light rain 21.970 21.970 21.970 38 3.03 m/h 48 %
05:00:00 light rain 20.760 20.760 20.760 41 2.6 m/h 11 %
08:00:00 clear sky 24.540 24.540 24.540 34 2.55 m/h 0 %
11:00:00 clear sky 32.290 32.290 32.290 20 1.76 m/h 0 %
14:00:00 clear sky 35.680 35.680 35.680 15 1.57 m/h 0 %
17:00:00 clear sky 34.840 34.840 34.840 15 3.32 m/h 0 %
20:00:00 clear sky 28.020 28.020 28.020 28 4.26 m/h 0 %
23:00:00 clear sky 24.970 24.970 24.970 37 3.31 m/h 0 %
11-Apr-2020 (Sat)
02:00:00 broken clouds 23.390 23.390 23.390 41 2.37 m/h 0 %
05:00:00 scattered clouds 22.470 22.470 22.470 41 1.66 m/h 0 %
08:00:00 overcast clouds 26.820 26.820 26.820 29 2.71 m/h 0 %
11:00:00 broken clouds 34.120 34.120 34.120 18 2.3 m/h 0 %
14:00:00 broken clouds 37.220 37.220 37.220 12 2.1 m/h 0 %
17:00:00 broken clouds 36.370 36.370 36.370 13 4.54 m/h 0 %
20:00:00 broken clouds 29.670 29.670 29.670 20 2.81 m/h 0 %
23:00:00 overcast clouds 27.240 27.240 27.240 26 1.97 m/h 0 %
12-Apr-2020 (Sun)
02:00:00 overcast clouds 25.810 25.810 25.810 28 2.31 m/h 0 %
05:00:00 broken clouds 24.580 24.580 24.580 29 1.86 m/h 0 %
08:00:00 broken clouds 29.650 29.650 29.650 20 1.09 m/h 0 %
11:00:00 broken clouds 35.620 35.620 35.620 15 3.43 m/h 0 %
14:00:00 overcast clouds 37.830 37.830 37.830 14 4.27 m/h 0 %
17:00:00 overcast clouds 36.590 36.590 36.590 15 4.32 m/h 0 %
20:00:00 overcast clouds 30.310 30.310 30.310 21 2.16 m/h 0 %
23:00:00 broken clouds 27.770 27.770 27.770 23 1.58 m/h 0 %
13-Apr-2020 (Mon)
02:00:00 broken clouds 26.510 26.510 26.510 24 1.76 m/h 0 %
05:00:00 scattered clouds 25.170 25.170 25.170 26 1.81 m/h 0 %
08:00:00 broken clouds 30.450 30.450 30.450 19 0.38 m/h 0 %
11:00:00 scattered clouds 37.830 37.830 37.830 11 1.66 m/h 0 %
14:00:00 few clouds 40.630 40.630 40.630 9 3.93 m/h 0 %
17:00:00 clear sky 39.800 39.800 39.800 10 3.74 m/h 0 %
20:00:00 clear sky 32.600 32.600 32.600 17 2.53 m/h 0 %
23:00:00 clear sky 30.450 30.450 30.450 19 3.06 m/h 0 %


Faisalabad's Tourist Spots

Parks and Zoos in Faisalabad

Famous Cities (61)